Dati Storici

Data ora Umidita' aria (%) Temperatura aria (°C) Rad globale (W/m²) Gonioanemometro (°) Tacoanemometro (m/s) Pioggia (mm)
26-10-2012 12:50 81.8 % 13.686 121.94 21.925 1.168 0
26-10-2012 12:40 82 % 13.448 79.5 337.005 0.914 0
26-10-2012 12:30 81.5 % 13.386 72.421 4.975 0.996 0
26-10-2012 12:20 81.4 % 13.36 61.278 346.631 1.43 0
26-10-2012 12:10 80.5 % 13.403 56.821 3.808 1.262 0
26-10-2012 12:00 79.7 % 13.388 62.762 34.594 1.423 0
26-10-2012 11:50 78.5 % 13.527 57.985 13.157 1.615 0
26-10-2012 11:40 78.3 % 13.475 61.925 1.967 1.327 0
26-10-2012 11:30 78.3 % 13.395 54.059 13.88 1.199 0
26-10-2012 11:20 78.2 % 13.314 83.075 26.366 2.123 0
26-10-2012 11:10 78.1 % 13.24 64.51 14.91 2.408 0
26-10-2012 11:00 79 % 13.323 75.603 14.475 1.157 0
26-10-2012 10:50 79 % 13.089 158.996 8.353 1.271 0
26-10-2012 10:40 79.3 % 12.914 166.195 14.57 2.113 0
26-10-2012 10:30 80.3 % 12.789 169.544 14.209 2.462 0
26-10-2012 10:20 81.1 % 12.568 122.422 38.816 2.133 0
26-10-2012 10:10 81.7 % 12.398 83.541 47.515 2.414 0
26-10-2012 10:00 82.3 % 12.232 106.764 29.691 1.601 0
26-10-2012 09:50 82.8 % 11.99 114.809 27.747 1.781 0
26-10-2012 09:40 83.3 % 11.832 80.818 27.109 2.284 0

I dati sono presentati in modo automatico a scopo informativo. In seguito a verifica i dati possono subire modifiche o essere invalidati e non riportati negli archivi definitivi.